Time;durP1;ratioP1;P1;durP2;ratioP2;P2;SDS_P1;SDS_P2;PMS_P1;PMS_P2;Temp;Humidity;BMP_temperature;BMP_pressure;BME280_temperature;BME280_humidity;BME280_pressure;Samples;Min_cycle;Max_cycle;Signal;HPM_P1;HPM_P2
2022/05/08 00:00:19;;;;;;;69.82;45.60;;;12.20;99.90;;;;;;5047672;28;20864;-53
2022/05/08 00:02:44;;;;;;;67.57;45.40;;;12.20;99.90;;;;;;5047762;28;20124;-51
2022/05/08 00:05:12;;;;;;;66.00;45.00;;;12.10;99.90;;;;;;5047637;28;20116;-53
2022/05/08 00:07:37;;;;;;;;;;;12.10;99.90;;;;;;5045667;28;20028;-52
2022/05/08 00:10:03;;;;;;;68.03;43.08;;;12.10;99.90;;;;;;5048821;28;19918;-53
2022/05/08 00:12:29;;;;;;;154.00;105.43;;;12.10;99.90;;;;;;5048784;28;20092;-52
2022/05/08 00:14:55;;;;;;;177.57;126.45;;;12.00;99.90;;;;;;5048616;28;20495;-52
2022/05/08 00:17:21;;;;;;;371.33;198.60;;;12.10;99.90;;;;;;5048642;28;20096;-52
2022/05/08 00:19:47;;;;;;;76.45;47.42;;;12.00;99.90;;;;;;5048778;28;20049;-52
2022/05/08 00:22:13;;;;;;;62.85;42.58;;;12.00;99.90;;;;;;5049004;28;20025;-51
2022/05/08 00:24:40;;;;;;;66.80;43.28;;;11.90;99.90;;;;;;5047700;28;20029;-51
2022/05/08 00:27:06;;;;;;;64.45;42.88;;;11.90;99.90;;;;;;5048723;28;20029;-51
2022/05/08 00:29:32;;;;;;;68.13;43.93;;;11.80;99.90;;;;;;5049088;28;20044;-51
2022/05/08 00:31:58;;;;;;;71.45;44.47;;;11.70;99.90;;;;;;5048139;28;20862;-52
2022/05/08 00:34:24;;;;;;;73.75;46.60;;;11.70;99.90;;;;;;5051407;28;20021;-51
2022/05/08 00:36:50;;;;;;;66.00;43.88;;;11.60;99.90;;;;;;5052775;28;20017;-51
2022/05/08 00:39:19;;;;;;;66.15;43.53;;;11.70;99.90;;;;;;5053113;28;20029;-52
2022/05/08 00:41:48;;;;;;;61.25;42.22;;;11.60;99.90;;;;;;5052750;28;20025;-52
2022/05/08 00:44:13;;;;;;;55.90;39.25;;;11.60;99.90;;;;;;5068312;28;20036;-52
2022/05/08 00:46:40;;;;;;;63.03;41.03;;;11.70;99.90;;;;;;5072484;28;20029;-51
2022/05/08 00:49:06;;;;;;;62.33;41.38;;;11.60;99.90;;;;;;5072625;28;20086;-51
2022/05/08 00:51:32;;;;;;;58.92;39.95;;;11.60;99.90;;;;;;5072724;28;20033;-51
2022/05/08 00:54:02;;;;;;;63.55;41.60;;;11.60;99.90;;;;;;5072513;28;20044;-52
2022/05/08 00:56:27;;;;;;;62.25;40.88;;;11.60;99.90;;;;;;5072708;28;20406;-52
2022/05/08 00:58:54;;;;;;;56.95;38.67;;;11.60;99.90;;;;;;5072351;28;20021;-51
2022/05/08 01:01:20;;;;;;;58.28;39.30;;;11.60;99.90;;;;;;5072359;28;20039;-52
2022/05/08 01:03:47;;;;;;;58.80;38.42;;;11.60;99.90;;;;;;5072636;28;20032;-51
2022/05/08 01:06:15;;;;;;;63.27;40.03;;;11.60;99.90;;;;;;5072287;28;20031;-51
2022/05/08 01:08:47;;;;;;;58.42;40.35;;;11.50;99.90;;;;;;5072303;28;20492;-51
2022/05/08 01:11:13;;;;;;;62.90;39.35;;;11.50;99.90;;;;;;5072388;28;20029;-51
2022/05/08 01:13:40;;;;;;;59.92;40.45;;;11.50;99.90;;;;;;5071009;28;20040;-51
2022/05/08 01:16:11;;;;;;;63.28;40.72;;;11.60;99.90;;;;;;5072178;28;20025;-50
2022/05/08 01:18:38;;;;;;;61.28;41.30;;;11.50;99.90;;;;;;5072175;28;20029;-52
2022/05/08 01:21:07;;;;;;;63.83;40.97;;;11.30;99.90;;;;;;5066367;28;20423;-51
2022/05/08 01:23:33;;;;;;;61.40;41.28;;;11.30;99.90;;;;;;5051797;28;20028;-51
2022/05/08 01:25:58;;;;;;;62.03;40.50;;;11.20;99.90;;;;;;5052078;28;20029;-51
2022/05/08 01:28:25;;;;;;;71.13;45.13;;;11.30;99.90;;;;;;5052159;28;20037;-51
2022/05/08 01:30:53;;;;;;;69.93;43.05;;;11.20;99.90;;;;;;5052249;28;20032;-51
2022/05/08 01:33:20;;;;;;;78.50;41.88;;;11.20;99.90;;;;;;5050521;28;20420;-50
2022/05/08 01:35:47;;;;;;;62.97;40.92;;;11.20;99.90;;;;;;5052074;28;20067;-51
2022/05/08 01:38:15;;;;;;;64.80;39.72;;;11.20;99.90;;;;;;5051886;28;20110;-51
2022/05/08 01:40:43;;;;;;;67.45;41.72;;;11.10;99.90;;;;;;5051808;28;20108;-51
2022/05/08 01:43:10;;;;;;;61.22;39.30;;;11.10;99.90;;;;;;5058280;28;20097;-52
2022/05/08 01:45:36;;;;;;;58.97;37.03;;;11.10;99.90;;;;;;5071727;28;20029;-51
2022/05/08 01:50:48;;;;;;;68.10;41.42;;;11.10;99.90;;;;;;5071892;28;20102;-50
2022/05/08 01:53:14;;;;;;;63.05;39.70;;;11.00;99.90;;;;;;5070266;28;20028;-51
2022/05/08 01:55:40;;;;;;;63.83;40.55;;;11.00;99.90;;;;;;5071467;28;20035;-51
2022/05/08 01:58:05;;;;;;;53.63;36.47;;;11.10;99.90;;;;;;5071568;28;20388;-50
2022/05/08 02:00:32;;;;;;;57.13;38.42;;;11.00;99.90;;;;;;5071530;28;20028;-52
2022/05/08 02:03:02;;;;;;;61.88;37.55;;;11.00;99.90;;;;;;5071359;28;20024;-51
2022/05/08 02:05:28;;;;;;;55.85;36.42;;;11.00;99.90;;;;;;5071460;28;20036;-51
2022/05/08 02:07:55;;;;;;;63.80;39.88;;;11.00;99.90;;;;;;5071315;28;20028;-52
2022/05/08 02:10:21;;;;;;;64.32;40.40;;;10.90;99.90;;;;;;5071415;28;20031;-51
2022/05/08 02:12:47;;;;;;;65.88;40.63;;;10.80;99.90;;;;;;5071211;28;20035;-51
2022/05/08 02:15:14;;;;;;;64.50;40.55;;;10.60;99.90;;;;;;5071053;28;20039;-52
2022/05/08 02:17:41;;;;;;;55.75;37.78;;;10.50;99.90;;;;;;5071077;28;20371;-51
2022/05/08 02:20:08;;;;;;;66.45;41.45;;;10.50;99.90;;;;;;5071294;28;20024;-52
2022/05/08 02:22:35;;;;;;;62.80;40.38;;;10.30;99.90;;;;;;5052564;28;20033;-51
2022/05/08 02:25:01;;;;;;;59.85;38.85;;;10.40;99.90;;;;;;5051079;28;20021;-51
2022/05/08 02:27:33;;;;;;;56.83;35.88;;;10.40;99.90;;;;;;5044064;28;20029;-51
2022/05/08 02:29:59;;;;;;;52.97;35.35;;;10.50;99.90;;;;;;5050170;28;20037;-50
2022/05/08 02:32:25;;;;;;;52.40;34.63;;;10.50;99.90;;;;;;5051063;28;20464;-51
2022/05/08 02:34:50;;;;;;;50.75;35.22;;;10.50;99.90;;;;;;5062312;28;20119;-52
2022/05/08 02:37:16;;;;;;;56.17;36.30;;;10.50;99.90;;;;;;5071222;28;20434;-51
2022/05/08 02:39:43;;;;;;;59.08;37.08;;;10.40;99.90;;;;;;5071021;28;20024;-51
2022/05/08 02:42:08;;;;;;;59.53;37.03;;;10.40;99.90;;;;;;5070730;28;20032;-51
2022/05/08 02:44:34;;;;;;;57.65;36.47;;;10.40;99.90;;;;;;5070795;28;20282;-51
2022/05/08 02:47:00;;;;;;;57.17;36.33;;;10.30;99.90;;;;;;5059309;28;20041;-51
2022/05/08 02:49:28;;;;;;;55.47;36.58;;;10.20;99.90;;;;;;5051140;28;20037;-52
2022/05/08 02:51:53;;;;;;;53.90;34.88;;;10.10;99.90;;;;;;5050604;28;20025;-52
2022/05/08 02:54:19;;;;;;;53.10;36.08;;;10.10;99.90;;;;;;5050293;28;20080;-51
2022/05/08 02:59:29;;;;;;;54.15;36.75;;;10.00;99.90;;;;;;5050134;28;20071;-52
2022/05/08 03:01:55;;;;;;;54.50;36.53;;;10.10;99.90;;;;;;5050749;28;20048;-51
2022/05/08 03:04:20;;;;;;;59.13;38.42;;;10.10;99.90;;;;;;5050215;28;20025;-51
2022/05/08 03:06:46;;;;;;;59.38;39.83;;;10.00;99.90;;;;;;5050411;28;20400;-51
2022/05/08 03:09:12;;;;;;;60.22;37.08;;;10.00;99.90;;;;;;5050383;28;20549;-52
2022/05/08 03:11:37;;;;;;;55.03;36.17;;;10.00;99.90;;;;;;5050397;28;20452;-51
2022/05/08 03:14:03;;;;;;;55.80;37.80;;;10.00;99.90;;;;;;5050109;28;20052;-51
2022/05/08 03:16:29;;;;;;;52.97;34.92;;;10.00;99.90;;;;;;5049210;28;20480;-51
2022/05/08 03:18:55;;;;;;;48.10;32.47;;;10.00;99.90;;;;;;5050386;28;20477;-51
2022/05/08 03:21:22;;;;;;;51.75;35.05;;;9.90;99.90;;;;;;5050060;28;20028;-52
2022/05/08 03:23:48;;;;;;;58.13;37.70;;;9.90;99.90;;;;;;5063766;28;20056;-51
2022/05/08 03:26:16;;;;;;;56.25;37.30;;;9.90;99.90;;;;;;5069919;28;20067;-50
2022/05/08 03:28:42;;;;;;;53.85;35.42;;;9.90;99.90;;;;;;5070204;28;20062;-51
2022/05/08 03:31:09;;;;;;;56.35;37.00;;;9.90;99.90;;;;;;5069831;28;20032;-51
2022/05/08 03:33:37;;;;;;;56.85;37.50;;;9.90;99.90;;;;;;5069953;28;20020;-52
2022/05/08 03:36:03;;;;;;;55.00;35.60;;;9.90;99.90;;;;;;5070056;28;20111;-51
2022/05/08 03:38:30;;;;;;;55.75;39.60;;;9.90;99.90;;;;;;5070087;28;20511;-51
2022/05/08 03:40:56;;;;;;;56.60;38.90;;;9.90;99.90;;;;;;5070441;28;20032;-51
2022/05/08 03:43:23;;;;;;;57.83;38.42;;;10.00;99.90;;;;;;5069797;28;20097;-51
2022/05/08 03:45:49;;;;;;;55.17;37.67;;;9.90;99.90;;;;;;5068689;28;20031;-50
2022/05/08 03:48:19;;;;;;;54.28;36.50;;;9.90;99.90;;;;;;5069589;28;20291;-51
2022/05/08 03:50:44;;;;;;;60.78;39.42;;;9.90;99.90;;;;;;5070098;28;20032;-51
2022/05/08 03:53:10;;;;;;;52.15;37.05;;;9.90;99.90;;;;;;5070000;28;20037;-51
2022/05/08 03:55:36;;;;;;;56.53;36.75;;;9.90;99.90;;;;;;5069595;28;20553;-51
2022/05/08 03:58:03;;;;;;;49.58;33.05;;;9.90;99.90;;;;;;5069621;28;20016;-51
2022/05/08 04:00:28;;;;;;;51.90;35.00;;;9.90;99.90;;;;;;5068382;28;20024;-50
2022/05/08 04:02:55;;;;;;;56.70;36.00;;;9.90;99.90;;;;;;5069642;28;20278;-51
2022/05/08 04:05:22;;;;;;;54.83;36.03;;;10.00;99.90;;;;;;5068630;28;20067;-52
2022/05/08 04:07:48;;;;;;;62.13;38.42;;;10.00;99.90;;;;;;5069591;28;20472;-51
2022/05/08 04:10:14;;;;;;;57.05;39.67;;;9.80;99.90;;;;;;5069912;28;20032;-52
2022/05/08 04:12:42;;;;;;;57.88;39.53;;;9.90;99.90;;;;;;5068109;28;20058;-51
2022/05/08 04:18:09;;;;;;;64.97;43.33;;;10.10;99.90;;;;;;5027018;28;20103;-51
2022/05/08 04:20:36;;;;;;;53.17;38.35;;;10.20;99.90;;;;;;5060780;28;20491;-51
2022/05/08 04:25:46;;;;;;;56.70;36.70;;;10.40;99.90;;;;;;5069397;28;20105;-51
2022/05/08 04:28:11;;;;;;;54.70;35.97;;;10.40;99.90;;;;;;5069580;28;20493;-51
2022/05/08 04:30:37;;;;;;;53.67;37.05;;;10.50;99.90;;;;;;5069284;28;20029;-52
2022/05/08 04:33:03;;;;;;;53.05;35.97;;;10.50;99.90;;;;;;5069530;28;20037;-51
2022/05/08 04:35:29;;;;;;;57.17;37.63;;;10.50;99.90;;;;;;5069054;28;20535;-51
2022/05/08 04:37:55;;;;;;;55.22;37.95;;;10.60;99.90;;;;;;5069604;28;20107;-51
2022/05/08 04:40:24;;;;;;;56.08;36.90;;;10.60;99.90;;;;;;5067977;28;20024;-51
2022/05/08 04:42:50;;;;;;;56.13;35.40;;;10.70;99.90;;;;;;5068017;28;20048;-51
2022/05/08 04:45:15;;;;;;;54.70;38.13;;;10.70;99.90;;;;;;5068997;28;20052;-52
2022/05/08 04:47:41;;;;;;;58.10;38.13;;;10.80;99.90;;;;;;5068888;28;20056;-52
2022/05/08 04:50:07;;;;;;;52.95;34.92;;;10.80;99.90;;;;;;5069116;28;20043;-51
2022/05/08 04:52:36;;;;;;;57.53;38.20;;;10.90;99.90;;;;;;5069103;28;20547;-50
2022/05/08 04:55:03;;;;;;;58.28;39.58;;;10.90;99.90;;;;;;5067916;28;20028;-51
2022/05/08 04:57:30;;;;;;;58.20;39.72;;;11.00;99.90;;;;;;5069166;28;20025;-51
2022/05/08 04:59:56;;;;;;;61.10;41.75;;;11.00;99.90;;;;;;5069060;28;20140;-51
2022/05/08 05:02:22;;;;;;;67.22;42.72;;;11.00;99.90;;;;;;5069351;28;20578;-50
2022/05/08 05:04:47;;;;;;;63.22;43.05;;;11.10;99.90;;;;;;5069141;28;20452;-51
2022/05/08 05:07:13;;;;;;;65.63;43.92;;;11.10;99.90;;;;;;5068986;28;20415;-51
2022/05/08 05:09:39;;;;;;;64.63;44.03;;;11.20;99.90;;;;;;5067761;28;20047;-50
2022/05/08 05:12:05;;;;;;;63.22;43.17;;;11.30;99.90;;;;;;5068960;28;20465;-50
2022/05/08 05:14:31;;;;;;;65.65;44.05;;;11.20;99.90;;;;;;5068787;28;20028;-50
2022/05/08 05:16:58;;;;;;;56.90;39.37;;;11.20;99.90;;;;;;5070132;28;20456;-51
2022/05/08 05:19:23;;;;;;;64.57;43.47;;;11.30;99.90;;;;;;5072567;28;20267;-50
2022/05/08 05:21:49;;;;;;;64.15;44.65;;;11.40;99.90;;;;;;5066896;28;20031;-51
2022/05/08 05:24:15;;;;;;;71.30;46.38;;;11.30;99.90;;;;;;5069398;28;20029;-51
2022/05/08 05:26:41;;;;;;;79.40;53.47;;;11.40;99.90;;;;;;5072233;28;20032;-51
2022/05/08 05:29:08;;;;;;;77.10;51.85;;;11.40;99.90;;;;;;5070515;28;20025;-51
2022/05/08 05:31:34;;;;;;;;;;;11.60;99.90;;;;;;5072035;28;20036;-51
2022/05/08 05:33:59;;;;;;;82.10;54.35;;;11.70;99.90;;;;;;5070858;28;19973;-51
2022/05/08 05:36:25;;;;;;;90.20;59.30;;;11.80;99.90;;;;;;5072185;28;20029;-51
2022/05/08 05:38:51;;;;;;;84.20;58.25;;;11.90;99.90;;;;;;5072238;28;20028;-51
2022/05/08 05:41:16;;;;;;;89.45;59.38;;;12.00;99.90;;;;;;5071988;28;20035;-51
2022/05/08 05:43:42;;;;;;;90.53;62.25;;;12.00;99.90;;;;;;5072099;28;20024;-50
2022/05/08 05:48:52;;;;;;;84.63;58.33;;;12.20;99.90;;;;;;5072214;28;20047;-51
2022/05/08 05:51:18;;;;;;;87.72;59.00;;;12.20;99.90;;;;;;5072242;28;20115;-51
2022/05/08 05:53:43;;;;;;;87.85;58.67;;;12.30;99.90;;;;;;5053877;28;20480;-51
2022/05/08 05:56:09;;;;;;;86.43;59.05;;;12.40;99.90;;;;;;5072020;28;20035;-51
2022/05/08 05:58:35;;;;;;;84.72;57.25;;;12.40;99.90;;;;;;5071839;28;20028;-54
2022/05/08 06:01:01;;;;;;;81.60;58.22;;;12.50;99.90;;;;;;5071898;28;20017;-51
2022/05/08 06:03:27;;;;;;;90.32;59.20;;;12.60;99.90;;;;;;5071455;28;20035;-51
2022/05/08 06:05:53;;;;;;;96.72;62.38;;;12.60;99.90;;;;;;5071950;28;20020;-51
2022/05/08 06:08:19;;;;;;;95.72;62.47;;;12.80;99.90;;;;;;5055024;28;20028;-50
2022/05/08 06:10:44;;;;;;;92.63;61.58;;;12.80;99.90;;;;;;5051441;28;20536;-51
2022/05/08 06:13:10;;;;;;;93.45;62.05;;;12.80;99.90;;;;;;5050977;28;20072;-51
2022/05/08 06:15:36;;;;;;;98.30;65.10;;;13.00;99.90;;;;;;5051226;28;20021;-51
2022/05/08 06:18:01;;;;;;;85.75;57.58;;;13.00;99.90;;;;;;5051149;28;20017;-50
2022/05/08 06:20:27;;;;;;;74.57;52.50;;;13.00;99.90;;;;;;5051707;28;20024;-51
2022/05/08 06:22:54;;;;;;;78.72;53.45;;;13.10;99.90;;;;;;5031494;28;20534;-51
2022/05/08 06:25:20;;;;;;;74.93;49.55;;;13.20;99.90;;;;;;5048756;28;20025;-53
2022/05/08 06:27:46;;;;;;;68.93;47.05;;;13.30;99.90;;;;;;5050847;28;20029;-51
2022/05/08 06:30:12;;;;;;;74.75;45.85;;;13.40;99.90;;;;;;5050171;28;20496;-50
2022/05/08 06:32:38;;;;;;;69.83;45.40;;;13.50;99.90;;;;;;5050958;28;20024;-51
2022/05/08 06:35:04;;;;;;;78.63;45.28;;;13.60;99.90;;;;;;5051499;28;20025;-53
2022/05/08 06:37:30;;;;;;;61.92;43.38;;;13.80;99.90;;;;;;5048089;28;20408;-53
2022/05/08 06:39:55;;;;;;;55.92;39.25;;;13.90;99.90;;;;;;5051111;28;20025;-52
2022/05/08 06:42:21;;;;;;;57.60;40.63;;;13.90;99.90;;;;;;5049712;28;20021;-51
2022/05/08 06:44:47;;;;;;;62.00;45.53;;;14.10;99.90;;;;;;5051289;28;20528;-53
2022/05/08 06:47:12;;;;;;;61.70;45.05;;;14.20;99.90;;;;;;5050867;28;20092;-53
2022/05/08 06:49:38;;;;;;;67.90;46.97;;;14.30;99.90;;;;;;5050773;28;20040;-51
2022/05/08 06:52:04;;;;;;;62.10;41.65;;;14.30;99.90;;;;;;5050924;28;20061;-51
2022/05/08 06:54:30;;;;;;;58.10;37.83;;;14.50;99.90;;;;;;5050443;28;20040;-51
2022/05/08 06:56:56;;;;;;;50.60;37.67;;;14.60;99.90;;;;;;5050685;28;20025;-51
2022/05/08 07:02:07;;;;;;;56.25;35.33;;;14.80;99.90;;;;;;5050939;28;20047;-52
2022/05/08 07:04:33;;;;;;;53.47;37.20;;;14.90;99.90;;;;;;5050239;28;20032;-51
2022/05/08 07:07:00;;;;;;;51.53;38.67;;;15.00;99.90;;;;;;5050527;28;20086;-50
2022/05/08 07:09:25;;;;;;;48.90;34.00;;;15.10;99.90;;;;;;5050359;28;20114;-51
2022/05/08 07:11:51;;;;;;;44.67;31.35;;;15.10;99.90;;;;;;5050310;28;20484;-50
2022/05/08 07:14:17;;;;;;;44.05;29.90;;;15.40;99.90;;;;;;5050271;28;20028;-50
2022/05/08 07:16:43;;;;;;;44.80;30.55;;;15.50;99.90;;;;;;5048761;28;20025;-52
2022/05/08 07:19:10;;;;;;;37.77;28.50;;;15.70;99.90;;;;;;5050312;28;20062;-50
2022/05/08 07:21:36;;;;;;;42.80;28.30;;;15.80;99.90;;;;;;5050053;28;20366;-50
2022/05/08 07:24:02;;;;;;;35.60;22.75;;;15.80;99.90;;;;;;5065377;28;20020;-51
2022/05/08 07:26:27;;;;;;;31.70;21.35;;;15.90;99.90;;;;;;5058084;28;20086;-51
2022/05/08 07:28:53;;;;;;;31.77;21.42;;;16.00;99.90;;;;;;5049768;28;20032;-51
2022/05/08 07:31:19;;;;;;;33.38;22.85;;;16.10;99.90;;;;;;5047361;28;20477;-51
2022/05/08 07:33:44;;;;;;;30.95;21.25;;;16.30;99.90;;;;;;5048994;28;20542;-51
2022/05/08 07:36:13;;;;;;;30.85;21.73;;;16.30;99.90;;;;;;5049505;28;20025;-50
2022/05/08 07:38:48;;;;;;;28.35;21.05;;;16.50;99.90;;;;;;5049865;28;20060;-51
2022/05/08 07:41:16;;;;;;;35.95;21.88;;;16.50;99.90;;;;;;5049896;28;20024;-50
2022/05/08 07:43:45;;;;;;;37.30;25.30;;;16.60;99.90;;;;;;5049866;28;20021;-53
2022/05/08 07:46:12;;;;;;;36.10;24.48;;;16.60;99.90;;;;;;5049734;28;20383;-52
2022/05/08 07:48:37;;;;;;;38.40;24.63;;;16.80;99.90;;;;;;5047854;28;20114;-51
2022/05/08 07:51:04;;;;;;;35.83;25.02;;;16.80;99.90;;;;;;5049640;28;20469;-51
2022/05/08 07:53:31;;;;;;;38.13;25.25;;;17.00;99.90;;;;;;5049123;28;20059;-50
2022/05/08 07:55:57;;;;;;;;;;;17.10;99.90;;;;;;5046392;28;20029;-52
2022/05/08 07:58:24;;;;;;;34.70;24.60;;;17.10;99.90;;;;;;5048462;28;19955;-51
2022/05/08 08:00:54;;;;;;;36.15;24.35;;;17.30;99.90;;;;;;5048335;28;20064;-51
2022/05/08 08:03:23;;;;;;;32.40;21.35;;;17.50;99.90;;;;;;5046054;28;20483;-51
2022/05/08 08:05:48;;;;;;;28.05;20.17;;;17.50;99.90;;;;;;5048289;28;20424;-51
2022/05/08 08:08:16;;;;;;;27.27;19.40;;;17.50;99.90;;;;;;5048329;28;20021;-52
2022/05/08 08:10:41;;;;;;;;;;;17.50;99.90;;;;;;5049126;28;20025;-51
2022/05/08 08:13:07;;;;;;;25.80;17.15;;;17.70;99.90;;;;;;5048019;28;20275;-52
2022/05/08 08:15:33;;;;;;;23.48;16.42;;;17.60;99.90;;;;;;5046847;28;20388;-51
2022/05/08 08:17:59;;;;;;;24.23;13.98;;;17.70;99.90;;;;;;5048165;28;20496;-52
2022/05/08 08:20:24;;;;;;;17.63;13.32;;;17.90;99.90;;;;;;5048228;28;20109;-51
2022/05/08 08:22:52;;;;;;;18.35;13.32;;;18.10;99.90;;;;;;5048354;28;20610;-50
2022/05/08 08:25:17;;;;;;;;;;;18.30;99.90;;;;;;5048665;28;20035;-51
2022/05/08 08:27:43;;;;;;;23.63;13.88;;;18.50;99.90;;;;;;5049024;28;19967;-51
2022/05/08 08:30:09;;;;;;;21.45;14.65;;;18.40;99.90;;;;;;5048118;28;20087;-52
2022/05/08 08:32:35;;;;;;;22.60;16.38;;;18.50;99.90;;;;;;5046970;28;20047;-51
2022/05/08 08:35:00;;;;;;;25.23;14.10;;;18.50;99.90;;;;;;5048499;28;20032;-51
2022/05/08 08:37:26;;;;;;;27.17;15.85;;;18.50;99.90;;;;;;5048168;28;20055;-51
2022/05/08 08:39:52;;;;;;;20.73;15.20;;;18.60;99.90;;;;;;5048000;28;20129;-51
2022/05/08 08:42:29;;;;;;;23.33;14.90;;;18.60;99.90;;;;;;5048617;28;20028;-51
2022/05/08 08:47:56;;;;;;;20.27;13.18;;;18.80;99.90;;;;;;5046779;28;20079;-52
2022/05/08 08:50:26;;;;;;;21.77;12.90;;;18.90;99.90;;;;;;5046313;28;20033;-52
2022/05/08 08:53:01;;;;;;;21.95;14.93;;;19.00;99.90;;;;;;5050686;28;20021;-51
2022/05/08 08:55:27;;;;;;;21.33;13.57;;;19.10;99.90;;;;;;5051405;28;20056;-50
2022/05/08 08:57:53;;;;;;;20.23;13.07;;;19.00;99.90;;;;;;5051626;28;20071;-51
2022/05/08 09:00:20;;;;;;;22.00;12.95;;;19.20;99.90;;;;;;5051656;28;20045;-52
2022/05/08 09:02:50;;;;;;;15.40;11.52;;;19.40;99.90;;;;;;5051050;28;20552;-50
2022/05/08 09:05:16;;;;;;;17.17;9.45;;;19.30;96.00;;;;;;5048734;28;20029;-50
2022/05/08 09:07:43;;;;;;;16.95;9.50;;;19.20;95.40;;;;;;5051240;28;20021;-52
2022/05/08 09:10:15;;;;;;;13.25;9.18;;;19.50;96.80;;;;;;5051014;28;20043;-51
2022/05/08 09:12:43;;;;;;;16.75;10.60;;;19.60;96.60;;;;;;5049367;28;20029;-51
2022/05/08 09:15:31;;;;;;;15.98;10.60;;;19.70;95.60;;;;;;5050921;28;20045;-51
2022/05/08 09:18:00;;;;;;;18.30;10.23;;;19.70;96.70;;;;;;5048979;28;20623;-51
2022/05/08 09:20:43;;;;;;;11.70;8.07;;;19.70;99.50;;;;;;5051078;28;20481;-51
2022/05/08 09:23:14;;;;;;;16.30;8.40;;;19.80;97.70;;;;;;5051995;28;20598;-51
2022/05/08 09:25:45;;;;;;;13.68;8.80;;;19.90;96.60;;;;;;5049304;28;20112;-52
2022/05/08 09:28:12;;;;;;;16.40;9.60;;;20.20;96.10;;;;;;5050800;28;20056;-51
2022/05/08 09:30:56;;;;;;;15.73;9.32;;;20.70;99.90;;;;;;5050765;28;20511;-52
2022/05/08 09:33:32;;;;;;;17.75;9.48;;;21.00;95.80;;;;;;5031984;28;20113;-51
2022/05/08 09:36:00;;;;;;;15.88;8.80;;;21.00;89.00;;;;;;5032021;28;20049;-51
2022/05/08 09:38:48;;;;;;;13.00;8.70;;;20.90;90.00;;;;;;5032082;28;20129;-51
2022/05/08 09:41:17;;;;;;;16.10;8.65;;;21.10;90.90;;;;;;5032099;28;20028;-51
2022/05/08 09:43:43;;;;;;;11.65;7.47;;;21.30;90.90;;;;;;5031705;28;20083;-51
2022/05/08 09:46:09;;;;;;;14.55;7.40;;;21.50;83.80;;;;;;5032026;28;20021;-51
2022/05/08 09:48:36;;;;;;;14.40;6.90;;;21.80;90.10;;;;;;5031798;28;20123;-51
2022/05/08 09:51:07;;;;;;;14.15;8.20;;;21.80;72.50;;;;;;5031852;28;20124;-51
2022/05/08 09:53:36;;;;;;;12.30;6.85;;;21.80;74.20;;;;;;5030314;28;20394;-51
2022/05/08 09:56:04;;;;;;;12.02;6.82;;;21.70;74.50;;;;;;5031773;28;20522;-51
2022/05/08 09:58:31;;;;;;;11.57;6.05;;;21.60;73.70;;;;;;5031726;28;20021;-51
2022/05/08 10:00:56;;;;;;;11.48;6.13;;;22.10;84.40;;;;;;5031539;28;20033;-51
2022/05/08 10:03:24;;;;;;;9.45;5.82;;;22.60;67.80;;;;;;5031422;28;20036;-52
2022/05/08 10:05:50;;;;;;;;;;;22.70;67.90;;;;;;5031963;28;20038;-52
2022/05/08 10:08:19;;;;;;;10.80;5.50;;;23.10;75.10;;;;;;5030774;28;19916;-51
2022/05/08 10:14:04;;;;;;;10.65;6.75;;;23.60;69.80;;;;;;5030766;28;20547;-51
2022/05/08 10:16:52;;;;;;;8.68;6.45;;;23.40;68.60;;;;;;5030861;28;20033;-52
2022/05/08 10:19:21;;;;;;;9.80;6.97;;;23.30;68.60;;;;;;5031335;28;20021;-52
2022/05/08 10:21:56;;;;;;;11.05;6.88;;;22.80;66.80;;;;;;5038769;28;20509;-50
2022/05/08 10:24:32;;;;;;;14.02;6.88;;;22.80;65.30;;;;;;5069159;28;20487;-51
2022/05/08 10:27:17;;;;;;;12.70;6.38;;;22.20;63.10;;;;;;5070722;28;20025;-51
2022/05/08 10:29:49;;;;;;;10.93;6.95;;;22.30;65.60;;;;;;5070557;28;20028;-52
2022/05/08 10:32:31;;;;;;;13.23;7.80;;;22.20;65.10;;;;;;5070573;28;20493;-51
2022/05/08 10:35:20;;;;;;;9.57;5.60;;;21.80;65.70;;;;;;5070438;28;20051;-51
2022/05/08 10:37:51;;;;;;;16.80;6.22;;;21.80;63.70;;;;;;5070922;28;20035;-50
2022/05/08 10:40:23;;;;;;;14.43;6.20;;;21.90;65.10;;;;;;5071035;28;20056;-51
2022/05/08 10:42:49;;;;;;;9.52;5.25;;;22.20;66.50;;;;;;5066373;28;20024;-51
2022/05/08 10:45:43;;;;;;;12.35;7.32;;;22.40;65.90;;;;;;5050194;28;20051;-50
2022/05/08 10:48:13;;;;;;;9.90;5.90;;;22.10;61.70;;;;;;5038976;28;20064;-51
2022/05/08 10:50:50;;;;;;;9.90;6.60;;;22.80;65.90;;;;;;5046880;28;20492;-51
2022/05/08 10:53:32;;;;;;;11.98;7.00;;;23.00;64.10;;;;;;5049163;28;20136;-51
2022/05/08 10:56:05;;;;;;;10.00;6.63;;;23.20;65.30;;;;;;5049356;28;20032;-51
2022/05/08 10:58:35;;;;;;;11.80;7.10;;;23.70;64.70;;;;;;5049398;28;20056;-52
2022/05/08 11:01:03;;;;;;;10.45;6.78;;;24.00;64.60;;;;;;5047030;28;20033;-51
2022/05/08 11:03:29;;;;;;;16.27;7.40;;;23.90;59.10;;;;;;5050009;28;20112;-51
2022/05/08 11:05:56;;;;;;;15.32;7.95;;;23.00;59.00;;;;;;5049933;28;20171;-51
2022/05/08 11:08:28;;;;;;;10.82;6.13;;;22.90;59.60;;;;;;5050246;28;20025;-51
2022/05/08 11:11:07;;;;;;;8.32;5.13;;;23.60;63.40;;;;;;5050656;28;20041;-51
2022/05/08 11:13:48;;;;;;;10.60;5.95;;;23.90;58.90;;;;;;5049898;28;20573;-51
2022/05/08 11:16:29;;;;;;;9.27;4.13;;;24.00;58.50;;;;;;5046903;28;20027;-51
2022/05/08 11:18:58;;;;;;;11.40;5.13;;;24.50;60.20;;;;;;5047523;28;20025;-51
2022/05/08 11:21:26;;;;;;;7.03;4.50;;;24.10;55.20;;;;;;5047547;28;20017;-51
2022/05/08 11:23:53;;;;;;;10.93;4.50;;;24.30;57.30;;;;;;5050301;28;20434;-51
2022/05/08 11:26:26;;;;;;;6.45;4.13;;;24.40;59.00;;;;;;5048796;28;20016;-51
2022/05/08 11:28:57;;;;;;;8.05;4.72;;;24.60;59.10;;;;;;5046374;28;20043;-52
2022/05/08 11:31:28;;;;;;;7.70;4.40;;;24.80;56.30;;;;;;5048851;28;20064;-51
2022/05/08 11:36:39;;;;;;;9.00;4.70;;;25.20;53.10;;;;;;5047534;28;20074;-51
2022/05/08 11:39:25;;;;;;;10.20;5.00;;;25.50;55.00;;;;;;5048453;28;20025;-51
2022/05/08 11:41:51;;;;;;;9.00;4.95;;;25.70;51.60;;;;;;5046306;28;20041;-51
2022/05/08 11:44:18;;;;;;;11.43;5.57;;;25.90;49.60;;;;;;5048606;28;20025;-50
2022/05/08 11:46:46;;;;;;;10.05;5.68;;;25.20;50.70;;;;;;5048286;28;20044;-51
2022/05/08 11:49:19;;;;;;;11.10;6.22;;;25.40;55.30;;;;;;5047757;28;20040;-51
2022/05/08 11:51:51;;;;;;;9.63;5.45;;;25.60;54.80;;;;;;5047967;28;20025;-52
2022/05/08 11:54:38;;;;;;;9.13;5.38;;;26.00;54.50;;;;;;5047770;28;20074;-52
2022/05/08 11:57:13;;;;;;;8.55;5.20;;;26.10;54.40;;;;;;5046956;28;20540;-51
2022/05/08 11:59:40;;;;;;;12.00;5.93;;;26.00;54.90;;;;;;5048155;28;20021;-51
2022/05/08 12:02:06;;;;;;;10.95;5.68;;;25.30;53.70;;;;;;5048178;28;20079;-51
2022/05/08 12:04:33;;;;;;;9.25;5.47;;;25.50;53.70;;;;;;5047132;28;20045;-51
2022/05/08 12:07:15;;;;;;;7.97;5.35;;;26.00;56.80;;;;;;5047263;28;20543;-51
2022/05/08 12:09:43;;;;;;;10.25;5.32;;;25.90;53.60;;;;;;5045436;28;20029;-51
2022/05/08 12:12:32;;;;;;;11.45;5.18;;;25.90;53.90;;;;;;5045568;28;20503;-51
2022/05/08 12:15:07;;;;;;;8.82;4.93;;;26.00;52.20;;;;;;5047372;28;20122;-51
2022/05/08 12:17:42;;;;;;;8.80;4.95;;;26.00;53.40;;;;;;5045948;28;20051;-50
2022/05/08 12:20:12;;;;;;;8.23;4.97;;;26.10;54.10;;;;;;5046979;28;20049;-51
2022/05/08 12:22:38;;;;;;;9.10;5.85;;;25.80;50.50;;;;;;5048135;28;20104;-50
2022/05/08 12:25:05;;;;;;;9.98;6.32;;;25.70;49.70;;;;;;5045745;28;20075;-50
2022/05/08 12:27:31;;;;;;;11.43;5.40;;;26.10;51.50;;;;;;5049267;28;20064;-51
2022/05/08 12:29:57;;;;;;;8.52;5.25;;;26.10;51.00;;;;;;5050533;28;20660;-51
2022/05/08 12:32:26;;;;;;;6.38;4.57;;;25.50;49.80;;;;;;5050498;28;20465;-51
2022/05/08 12:34:53;;;;;;;9.23;4.75;;;25.30;51.00;;;;;;5048713;28;20115;-50
2022/05/08 12:37:20;;;;;;;8.57;4.95;;;25.70;52.00;;;;;;5050576;28;20567;-51
2022/05/08 12:39:46;;;;;;;7.03;4.45;;;26.00;51.30;;;;;;5049832;28;20488;-50
2022/05/08 12:42:12;;;;;;;9.67;4.73;;;26.10;50.80;;;;;;5050763;28;20025;-51
2022/05/08 12:44:39;;;;;;;8.27;4.72;;;25.30;50.80;;;;;;5050607;28;20484;-51
2022/05/08 12:47:09;;;;;;;6.80;4.70;;;25.40;52.70;;;;;;5007895;28;1214221;-51
2022/05/08 12:49:37;;;;;;;8.40;4.82;;;25.10;51.90;;;;;;5051846;28;20400;-51
2022/05/08 12:52:04;;;;;;;7.82;4.50;;;25.00;53.20;;;;;;5051735;28;20028;-51
2022/05/08 12:54:31;;;;;;;7.45;4.70;;;24.80;53.80;;;;;;5048283;28;20086;-51
2022/05/08 12:56:56;;;;;;;7.65;4.88;;;24.60;53.50;;;;;;5051562;28;20025;-52
2022/05/08 13:02:06;;;;;;;8.48;4.32;;;24.40;53.00;;;;;;5051376;28;20892;-51
2022/05/08 13:04:32;;;;;;;6.30;3.97;;;24.70;56.00;;;;;;5051759;28;20107;-51